createdAt,value
2017-05-15T00:00:28.453Z,16.80
2017-05-15T00:02:55.453Z,16.70
2017-05-15T00:05:22.449Z,16.60
2017-05-15T00:07:50.255Z,16.50
2017-05-15T00:10:17.284Z,16.40
2017-05-15T00:12:44.305Z,16.30
2017-05-15T00:15:11.316Z,16.20
2017-05-15T00:17:39.093Z,16.00
2017-05-15T00:20:06.524Z,16.20
2017-05-15T00:22:33.538Z,16.40
2017-05-15T00:25:00.555Z,16.50
2017-05-15T00:27:27.569Z,16.70
2017-05-15T00:29:54.576Z,16.60
2017-05-15T00:32:21.962Z,16.40
2017-05-15T00:34:48.989Z,16.50
2017-05-15T00:37:16.003Z,16.50
2017-05-15T00:39:43.049Z,16.40
2017-05-15T00:42:10.057Z,16.30
2017-05-15T00:44:37.506Z,16.30
2017-05-15T00:47:04.524Z,16.30
2017-05-15T00:49:31.553Z,16.20
2017-05-15T00:51:58.584Z,16.30
2017-05-15T00:54:25.582Z,16.30
2017-05-15T00:56:52.909Z,16.30
2017-05-15T00:59:19.962Z,16.30
2017-05-15T01:01:47.050Z,16.10
2017-05-15T01:04:14.513Z,16.00
2017-05-15T01:06:42.294Z,16.00
2017-05-15T01:09:10.205Z,16.00
2017-05-15T01:11:37.289Z,16.10
2017-05-15T01:14:05.040Z,16.00
2017-05-15T01:16:32.520Z,16.00
2017-05-15T01:19:00.247Z,15.90
2017-05-15T01:21:29.209Z,15.90
2017-05-15T01:23:56.243Z,15.60
2017-05-15T01:26:24.001Z,15.70
2017-05-15T01:28:52.103Z,15.70
2017-05-15T01:31:19.147Z,15.70
2017-05-15T01:33:46.172Z,15.70
2017-05-15T01:36:13.209Z,15.50
2017-05-15T01:38:41.005Z,15.20
2017-05-15T01:41:08.403Z,15.20
2017-05-15T01:43:35.420Z,15.20
2017-05-15T01:46:02.469Z,15.20
2017-05-15T01:48:29.492Z,15.20
2017-05-15T01:50:56.580Z,15.20
2017-05-15T01:53:23.965Z,15.00
2017-05-15T01:55:51.755Z,14.80
2017-05-15T01:58:18.783Z,15.00
2017-05-15T02:00:45.793Z,15.10
2017-05-15T02:03:12.819Z,15.10
2017-05-15T02:05:40.204Z,15.20
2017-05-15T02:08:07.595Z,15.10
2017-05-15T02:10:34.704Z,15.00
2017-05-15T02:13:01.746Z,14.70
2017-05-15T02:15:28.776Z,14.50
2017-05-15T02:17:56.182Z,14.50
2017-05-15T02:20:23.210Z,14.50
2017-05-15T02:22:50.240Z,14.60
2017-05-15T02:25:17.316Z,14.60
2017-05-15T02:27:44.379Z,14.40
2017-05-15T02:30:12.552Z,14.30
2017-05-15T02:32:40.320Z,14.30
2017-05-15T02:35:07.343Z,14.20
2017-05-15T02:37:34.379Z,14.10
2017-05-15T02:40:01.430Z,14.00
2017-05-15T02:42:28.920Z,14.10
2017-05-15T02:44:56.692Z,14.10
2017-05-15T02:47:23.730Z,14.20
2017-05-15T02:49:51.524Z,14.20
2017-05-15T02:52:18.544Z,14.30
2017-05-15T02:54:46.001Z,14.20
2017-05-15T02:57:13.048Z,14.30
2017-05-15T02:59:40.854Z,14.10
2017-05-15T03:02:07.910Z,14.10
2017-05-15T03:04:34.898Z,14.20
2017-05-15T03:07:02.369Z,14.40
2017-05-15T03:09:29.377Z,14.40
2017-05-15T03:11:56.573Z,14.50
2017-05-15T03:14:24.435Z,14.40
2017-05-15T03:16:52.206Z,14.50
2017-05-15T03:19:20.258Z,14.50
2017-05-15T03:21:47.304Z,14.30
2017-05-15T03:24:14.341Z,14.10
2017-05-15T03:26:41.519Z,14.10
2017-05-15T03:29:09.318Z,14.10
2017-05-15T03:31:36.723Z,14.10
2017-05-15T03:34:03.775Z,13.90
2017-05-15T03:36:30.821Z,13.70
2017-05-15T03:38:57.871Z,13.90
2017-05-15T03:41:24.929Z,14.10
2017-05-15T03:43:52.494Z,14.20
2017-05-15T03:46:20.338Z,14.20
2017-05-15T03:48:47.413Z,14.30
2017-05-15T03:51:14.476Z,14.10
2017-05-15T03:53:42.221Z,14.10
2017-05-15T03:56:10.359Z,14.20
2017-05-15T03:58:37.393Z,14.20
2017-05-15T04:01:04.415Z,14.30
2017-05-15T04:03:31.496Z,14.00
2017-05-15T04:05:58.536Z,13.70
2017-05-15T04:08:25.589Z,14.00
2017-05-15T04:10:52.634Z,14.00
2017-05-15T04:13:19.665Z,13.90
2017-05-15T04:15:47.025Z,13.90
2017-05-15T04:18:14.040Z,13.80
2017-05-15T04:20:41.896Z,13.70
2017-05-15T04:23:08.948Z,13.70
2017-05-15T04:25:36.004Z,13.60
2017-05-15T04:28:04.158Z,13.30
2017-05-15T04:30:31.209Z,13.60
2017-05-15T04:32:58.241Z,13.50
2017-05-15T04:35:25.276Z,13.50
2017-05-15T04:37:52.311Z,13.60
2017-05-15T04:40:19.724Z,13.50
2017-05-15T04:42:46.774Z,13.40
2017-05-15T04:45:13.784Z,13.50
2017-05-15T04:47:40.833Z,13.40
2017-05-15T04:50:07.873Z,13.60
2017-05-15T04:52:35.354Z,13.70
2017-05-15T04:55:02.372Z,13.40
2017-05-15T04:57:29.400Z,13.40
2017-05-15T04:59:56.452Z,13.30
2017-05-15T05:02:23.472Z,13.40
2017-05-15T05:04:51.015Z,13.40
2017-05-15T05:07:18.052Z,13.40
2017-05-15T05:09:45.064Z,13.50
2017-05-15T05:12:12.101Z,13.30
2017-05-15T05:14:39.128Z,13.40
2017-05-15T05:17:06.548Z,13.20
2017-05-15T05:19:40.738Z,13.30
2017-05-15T05:22:11.088Z,13.40
2017-05-15T05:24:53.121Z,13.60
2017-05-15T05:27:32.834Z,13.60
2017-05-15T05:30:09.018Z,13.70
2017-05-15T05:32:47.335Z,13.60
2017-05-15T05:35:16.073Z,13.80
2017-05-15T05:38:07.613Z,14.20
2017-05-15T05:40:40.562Z,14.40
2017-05-15T05:43:17.480Z,14.30
2017-05-15T05:45:45.304Z,14.20
2017-05-15T05:48:12.354Z,14.20
2017-05-15T05:50:39.884Z,13.90
2017-05-15T05:53:07.677Z,13.70
2017-05-15T05:55:47.585Z,14.00
2017-05-15T05:58:16.443Z,14.10
2017-05-15T06:00:53.037Z,13.90
2017-05-15T06:03:44.140Z,13.80
2017-05-15T06:06:23.790Z,13.80
2017-05-15T06:09:03.235Z,13.70
2017-05-15T06:11:43.809Z,13.80
2017-05-15T06:14:24.064Z,14.00
2017-05-15T06:17:03.688Z,13.90
2017-05-15T06:19:30.569Z,13.90
2017-05-15T06:21:58.342Z,13.80
2017-05-15T06:24:46.975Z,13.90
2017-05-15T06:27:13.992Z,14.10
2017-05-15T06:29:40.976Z,14.10
2017-05-15T06:32:09.066Z,14.10
2017-05-15T06:34:36.087Z,14.20
2017-05-15T06:37:03.127Z,14.10
2017-05-15T06:39:43.696Z,14.10
2017-05-15T06:42:23.237Z,14.20
2017-05-15T06:44:50.890Z,14.10
2017-05-15T06:47:17.873Z,14.10
2017-05-15T06:49:45.576Z,14.20
2017-05-15T06:52:12.656Z,13.90
2017-05-15T06:54:39.607Z,14.00
2017-05-15T06:57:06.952Z,14.10
2017-05-15T06:59:33.942Z,14.20
2017-05-15T07:02:00.948Z,14.30
2017-05-15T07:04:28.709Z,14.40
2017-05-15T07:06:55.587Z,14.10
2017-05-15T07:09:22.674Z,13.90
2017-05-15T07:11:49.705Z,13.50
2017-05-15T07:14:17.316Z,13.60
2017-05-15T07:16:45.094Z,13.70
2017-05-15T07:19:12.153Z,13.70
2017-05-15T07:21:39.342Z,13.50
2017-05-15T07:24:06.427Z,13.80
2017-05-15T07:26:34.603Z,13.60
2017-05-15T07:29:02.425Z,13.60
2017-05-15T07:31:29.456Z,13.60
2017-05-15T07:33:57.305Z,14.00
2017-05-15T07:36:24.685Z,14.10
2017-05-15T07:38:51.735Z,13.70
2017-05-15T07:41:19.112Z,13.60
2017-05-15T07:43:46.170Z,13.90
2017-05-15T07:46:13.376Z,13.70
2017-05-15T07:48:40.404Z,13.70
2017-05-15T07:51:07.429Z,13.90
2017-05-15T07:53:35.084Z,13.80
2017-05-15T07:56:02.130Z,13.70
2017-05-15T07:58:29.999Z,13.80
2017-05-15T08:00:57.050Z,13.80
2017-05-15T08:03:24.819Z,13.60
2017-05-15T08:05:52.976Z,13.80
2017-05-15T08:08:20.778Z,14.00
2017-05-15T08:10:47.863Z,14.20
2017-05-15T08:13:14.916Z,14.20
2017-05-15T08:15:41.934Z,14.20
2017-05-15T08:18:09.357Z,14.30
2017-05-15T08:20:36.349Z,14.30
2017-05-15T08:23:03.412Z,14.40
2017-05-15T08:25:30.428Z,14.70
2017-05-15T08:27:57.588Z,14.80
2017-05-15T08:30:24.996Z,14.60
2017-05-15T08:32:52.033Z,14.50
2017-05-15T08:35:19.079Z,14.60
2017-05-15T08:37:46.155Z,14.60
2017-05-15T08:40:13.920Z,14.50
2017-05-15T08:42:42.069Z,14.20
2017-05-15T08:45:09.204Z,14.70
2017-05-15T08:47:37.020Z,15.00
2017-05-15T08:50:04.077Z,15.30
2017-05-15T08:52:31.168Z,15.10
2017-05-15T08:54:58.659Z,15.00
2017-05-15T08:57:25.704Z,15.00
2017-05-15T08:59:53.360Z,15.50
2017-05-15T09:02:20.365Z,15.60
2017-05-15T09:04:48.211Z,15.20
2017-05-15T09:07:15.723Z,15.30
2017-05-15T09:09:43.534Z,15.30
2017-05-15T09:12:10.557Z,15.00
2017-05-15T09:14:37.603Z,15.10
2017-05-15T09:17:04.636Z,15.60
2017-05-15T09:19:32.802Z,15.40
2017-05-15T09:22:00.582Z,15.40
2017-05-15T09:24:27.626Z,15.20
2017-05-15T09:26:55.408Z,15.50
2017-05-15T09:29:22.487Z,16.00
2017-05-15T09:31:50.615Z,15.90
2017-05-15T09:34:18.464Z,15.90
2017-05-15T09:36:46.244Z,15.80
2017-05-15T09:39:13.380Z,15.60
2017-05-15T09:41:48.796Z,15.90
2017-05-15T09:44:16.319Z,15.80
2017-05-15T09:46:43.780Z,15.80
2017-05-15T09:49:10.817Z,16.20
2017-05-15T09:51:37.861Z,16.60
2017-05-15T09:54:05.896Z,16.40
2017-05-15T09:56:33.948Z,16.00
2017-05-15T09:59:00.978Z,16.10
2017-05-15T10:01:28.021Z,16.40
2017-05-15T10:03:55.102Z,16.70
2017-05-15T10:06:23.077Z,16.80
2017-05-15T10:08:50.506Z,16.60
2017-05-15T10:11:17.501Z,16.40
2017-05-15T10:13:44.559Z,15.90
2017-05-15T10:16:11.597Z,15.50
2017-05-15T10:18:38.596Z,15.60
2017-05-15T10:21:06.042Z,15.80
2017-05-15T10:23:33.159Z,15.80
2017-05-15T10:26:00.217Z,15.80
2017-05-15T10:28:27.275Z,16.00
2017-05-15T10:30:54.337Z,16.30
2017-05-15T10:33:22.515Z,16.60
2017-05-15T10:35:50.374Z,16.80
2017-05-15T10:38:17.412Z,17.10
2017-05-15T10:40:44.487Z,17.20
2017-05-15T10:43:12.241Z,17.20
2017-05-15T10:45:40.399Z,17.00
2017-05-15T10:48:07.435Z,16.70
2017-05-15T10:50:34.446Z,16.90
2017-05-15T10:53:01.501Z,16.70
2017-05-15T10:55:28.521Z,16.80
2017-05-15T10:57:56.050Z,16.70
2017-05-15T11:00:23.794Z,16.80
2017-05-15T11:02:50.808Z,16.90
2017-05-15T11:05:17.845Z,16.60
2017-05-15T11:07:44.864Z,16.90
2017-05-15T11:10:13.023Z,16.60
2017-05-15T11:12:40.799Z,16.80
2017-05-15T11:15:07.847Z,16.90
2017-05-15T11:17:35.175Z,17.10
2017-05-15T11:20:02.208Z,16.90
2017-05-15T11:22:29.297Z,16.80
2017-05-15T11:24:56.701Z,16.60
2017-05-15T11:27:23.745Z,16.90
2017-05-15T11:29:50.755Z,17.20
2017-05-15T11:32:17.807Z,17.40
2017-05-15T11:34:44.837Z,17.30
2017-05-15T11:37:12.987Z,17.30
2017-05-15T11:39:40.780Z,17.10
2017-05-15T11:42:07.991Z,16.90
2017-05-15T11:44:35.800Z,16.90
2017-05-15T11:47:02.832Z,16.90
2017-05-15T11:49:30.247Z,17.30
2017-05-15T11:51:59.061Z,17.40
2017-05-15T11:54:26.811Z,17.50
2017-05-15T11:56:53.861Z,17.50
2017-05-15T11:59:21.713Z,17.50
2017-05-15T12:01:49.062Z,17.40
2017-05-15T12:04:16.092Z,17.20
2017-05-15T12:06:43.113Z,17.00
2017-05-15T12:09:10.173Z,17.10
2017-05-15T12:11:44.085Z,17.10
2017-05-15T12:14:12.158Z,17.10
2017-05-15T12:16:39.161Z,17.20
2017-05-15T12:19:06.228Z,17.50
2017-05-15T12:21:33.296Z,17.60
2017-05-15T12:24:00.309Z,17.80
2017-05-15T12:26:27.697Z,18.10
2017-05-15T12:28:54.701Z,18.30
2017-05-15T12:31:21.747Z,18.30
2017-05-15T12:33:48.796Z,18.70
2017-05-15T12:36:15.885Z,19.00
2017-05-15T12:38:44.065Z,18.80
2017-05-15T12:41:11.090Z,19.00
2017-05-15T12:43:38.099Z,18.80
2017-05-15T12:46:05.173Z,18.90
2017-05-15T12:48:32.205Z,18.90
2017-05-15T12:50:59.597Z,19.30
2017-05-15T12:53:26.619Z,19.50
2017-05-15T12:55:53.667Z,18.90
2017-05-15T12:58:20.700Z,18.20
2017-05-15T13:00:47.797Z,18.20
2017-05-15T13:03:15.936Z,18.30
2017-05-15T13:05:42.979Z,18.40
2017-05-15T13:08:09.987Z,18.70
2017-05-15T13:10:37.027Z,19.40
2017-05-15T13:13:04.028Z,19.20
2017-05-15T13:15:31.595Z,19.10
2017-05-15T13:17:58.637Z,19.20
2017-05-15T13:20:26.413Z,18.80
2017-05-15T13:22:53.484Z,18.60
2017-05-15T13:25:20.540Z,18.80
2017-05-15T13:27:47.910Z,19.20
2017-05-15T13:30:14.958Z,19.60
2017-05-15T13:32:42.006Z,20.00
2017-05-15T13:35:09.105Z,20.00
2017-05-15T13:37:36.166Z,20.20
2017-05-15T13:40:03.584Z,19.90
2017-05-15T13:42:30.628Z,19.50
2017-05-15T13:44:58.437Z,19.20
2017-05-15T13:47:25.477Z,19.60
2017-05-15T13:49:53.312Z,20.20
2017-05-15T13:52:20.667Z,20.20
2017-05-15T13:54:48.368Z,20.80
2017-05-15T13:57:15.432Z,20.20
2017-05-15T13:59:42.479Z,20.10
2017-05-15T14:02:09.492Z,20.30
2017-05-15T14:04:36.880Z,20.70
2017-05-15T14:07:03.908Z,20.10
2017-05-15T14:09:30.964Z,19.80
2017-05-15T14:11:58.021Z,19.60
2017-05-15T14:14:25.080Z,19.90
2017-05-15T14:16:53.255Z,21.00
2017-05-15T14:19:21.050Z,21.20
2017-05-15T14:21:48.080Z,21.20
2017-05-15T14:24:15.721Z,20.90
2017-05-15T14:26:43.559Z,21.00
2017-05-15T14:29:11.045Z,21.10
2017-05-15T14:31:38.089Z,21.40
2017-05-15T14:34:05.888Z,21.70
2017-05-15T14:36:32.932Z,21.80
2017-05-15T14:38:59.969Z,21.10
2017-05-15T14:41:27.013Z,21.10
2017-05-15T14:43:54.434Z,21.30
2017-05-15T14:46:22.228Z,21.00
2017-05-15T14:48:49.264Z,21.50
2017-05-15T14:51:16.354Z,21.70
2017-05-15T14:53:43.395Z,22.10
2017-05-15T14:56:10.889Z,22.30
2017-05-15T14:58:37.936Z,21.90
2017-05-15T15:01:05.013Z,21.90
2017-05-15T15:03:32.061Z,22.40
2017-05-15T15:05:59.084Z,22.00
2017-05-15T15:08:26.433Z,21.50
2017-05-15T15:10:54.733Z,21.10
2017-05-15T15:13:21.769Z,21.90
2017-05-15T15:15:49.560Z,23.50
2017-05-15T15:18:16.640Z,24.30
2017-05-15T15:20:44.097Z,25.00
2017-05-15T15:23:11.897Z,24.00
2017-05-15T15:25:38.937Z,24.00
2017-05-15T15:28:06.072Z,24.00
2017-05-15T15:30:33.117Z,23.60
2017-05-15T15:33:00.563Z,23.50
2017-05-15T15:35:27.662Z,24.30
2017-05-15T15:37:55.488Z,24.30
2017-05-15T15:40:23.469Z,25.00
2017-05-15T15:42:50.543Z,25.30
2017-05-15T15:45:18.043Z,23.50
2017-05-15T15:47:45.492Z,23.40
2017-05-15T15:50:12.578Z,25.80
2017-05-15T15:52:39.613Z,27.40
2017-05-15T15:55:06.635Z,24.70
2017-05-15T15:57:34.081Z,24.20
2017-05-15T16:00:01.871Z,25.30
2017-05-15T16:02:28.917Z,26.50
2017-05-15T16:04:55.987Z,26.20
2017-05-15T16:07:23.067Z,25.30
2017-05-15T16:09:51.454Z,24.00
2017-05-15T16:12:18.456Z,22.80
2017-05-15T16:14:45.478Z,22.70
2017-05-15T16:17:12.553Z,25.70
2017-05-15T16:19:39.738Z,27.70
2017-05-15T16:22:06.992Z,27.90
2017-05-15T16:24:34.085Z,26.80
2017-05-15T16:27:01.504Z,27.20
2017-05-15T16:29:28.569Z,27.10
2017-05-15T16:31:55.614Z,28.80
2017-05-15T16:34:22.694Z,29.40
2017-05-15T16:36:49.768Z,30.50
2017-05-15T16:39:17.621Z,30.00
2017-05-15T16:41:44.614Z,27.20
2017-05-15T16:44:11.642Z,25.60
2017-05-15T16:46:39.473Z,23.80
2017-05-15T16:49:06.515Z,23.20
2017-05-15T16:51:33.577Z,24.40
2017-05-15T16:54:00.593Z,26.20
2017-05-15T16:56:28.059Z,26.90
2017-05-15T16:58:55.189Z,26.20
2017-05-15T17:01:22.198Z,25.80
2017-05-15T17:03:49.276Z,25.30
2017-05-15T17:06:16.355Z,23.00
2017-05-15T17:08:43.798Z,22.40
2017-05-15T17:11:10.845Z,21.90
2017-05-15T17:13:38.656Z,22.10
2017-05-15T17:16:05.700Z,22.40
2017-05-15T17:18:33.473Z,22.10
2017-05-15T17:21:00.880Z,22.20
2017-05-15T17:23:27.896Z,22.20
2017-05-15T17:25:54.924Z,22.30
2017-05-15T17:28:21.965Z,23.00
2017-05-15T17:30:49.060Z,23.70
2017-05-15T17:33:16.445Z,24.40
2017-05-15T17:35:43.465Z,24.10
2017-05-15T17:38:10.533Z,23.60
2017-05-15T17:40:37.618Z,23.10
2017-05-15T17:43:04.645Z,23.00
2017-05-15T17:45:32.020Z,22.50
2017-05-15T17:47:59.036Z,22.40
2017-05-15T17:50:26.053Z,22.50
2017-05-15T17:52:53.503Z,22.30
2017-05-15T17:55:20.534Z,21.90
2017-05-15T17:57:47.562Z,21.70
2017-05-15T18:00:14.633Z,21.60
2017-05-15T18:02:42.378Z,21.50
2017-05-15T18:05:10.706Z,21.60
2017-05-15T18:07:37.816Z,21.90
2017-05-15T18:10:05.745Z,22.20
2017-05-15T18:12:32.967Z,22.20
2017-05-15T18:15:09.057Z,22.50
2017-05-15T18:17:36.518Z,22.80
2017-05-15T18:20:03.562Z,22.70
2017-05-15T18:22:31.129Z,22.90
2017-05-15T18:24:58.600Z,22.80
2017-05-15T18:27:25.708Z,22.70
2017-05-15T18:29:52.760Z,22.50
2017-05-15T18:32:20.256Z,21.90
2017-05-15T18:34:48.027Z,21.90
2017-05-15T18:37:15.801Z,21.60
2017-05-15T18:39:43.224Z,21.70
2017-05-15T18:42:10.330Z,21.50
2017-05-15T18:44:37.403Z,21.40
2017-05-15T18:47:04.799Z,20.90
2017-05-15T18:49:31.911Z,20.80
2017-05-15T18:51:59.115Z,20.40
2017-05-15T18:54:26.540Z,20.20
2017-05-15T18:56:53.585Z,20.10
2017-05-15T18:59:21.357Z,20.00
2017-05-15T19:01:49.485Z,19.60
2017-05-15T19:04:17.297Z,19.60
2017-05-15T19:06:44.346Z,19.40
2017-05-15T19:09:11.876Z,19.20
2017-05-15T19:11:38.881Z,19.20
2017-05-15T19:14:05.939Z,19.00
2017-05-15T19:16:33.310Z,19.00
2017-05-15T19:19:00.291Z,19.00
2017-05-15T19:21:27.341Z,18.80
2017-05-15T19:23:54.777Z,18.80
2017-05-15T19:26:21.906Z,18.60
2017-05-15T19:28:48.969Z,18.40
2017-05-15T19:31:16.332Z,18.40
2017-05-15T19:33:44.144Z,18.40
2017-05-15T19:36:11.149Z,18.50
2017-05-15T19:38:38.606Z,18.40
2017-05-15T19:41:05.701Z,18.30
2017-05-15T19:43:32.752Z,18.40
2017-05-15T19:46:00.142Z,18.20
2017-05-15T19:48:27.179Z,18.10
2017-05-15T19:50:54.204Z,18.10
2017-05-15T19:53:21.692Z,18.10
2017-05-15T19:55:48.705Z,18.00
2017-05-15T19:58:15.712Z,17.80
2017-05-15T20:00:43.042Z,17.50
2017-05-15T20:03:10.820Z,17.20
2017-05-15T20:05:38.581Z,17.10
2017-05-15T20:08:06.754Z,17.00
2017-05-15T20:10:34.506Z,17.10
2017-05-15T20:13:01.529Z,17.10
2017-05-15T20:15:30.144Z,17.00
2017-05-15T20:17:57.129Z,17.00
2017-05-15T20:20:24.108Z,17.00
2017-05-15T20:22:51.468Z,16.90
2017-05-15T20:25:18.461Z,17.00
2017-05-15T20:27:46.224Z,16.80
2017-05-15T20:30:14.367Z,16.80
2017-05-15T20:32:41.405Z,16.50
2017-05-15T20:35:08.432Z,16.50
2017-05-15T20:37:35.826Z,16.50
2017-05-15T20:40:02.850Z,16.60
2017-05-15T20:42:29.821Z,16.40
2017-05-15T20:44:57.165Z,16.30
2017-05-15T20:47:24.169Z,16.30
2017-05-15T20:49:51.365Z,16.30
2017-05-15T20:52:18.727Z,16.30
2017-05-15T20:54:45.759Z,16.30
2017-05-15T20:57:12.798Z,16.40
2017-05-15T20:59:40.177Z,16.30
2017-05-15T21:02:07.204Z,16.20
2017-05-15T21:04:34.295Z,16.00
2017-05-15T21:07:02.369Z,15.90
2017-05-15T21:09:29.371Z,15.80
2017-05-15T21:11:56.368Z,15.80
2017-05-15T21:14:24.496Z,15.80
2017-05-15T21:16:51.498Z,15.80
2017-05-15T21:19:18.509Z,16.00
2017-05-15T21:21:46.053Z,15.90
2017-05-15T21:24:13.079Z,15.90
2017-05-15T21:26:40.120Z,15.60
2017-05-15T21:29:07.527Z,15.50
2017-05-15T21:31:35.309Z,15.60
2017-05-15T21:34:03.061Z,15.60
2017-05-15T21:36:30.497Z,15.60
2017-05-15T21:38:57.513Z,15.60
2017-05-15T21:41:24.890Z,15.50
2017-05-15T21:43:52.333Z,15.40
2017-05-15T21:46:19.372Z,15.40
2017-05-15T21:48:46.397Z,15.40
2017-05-15T21:51:13.828Z,15.60
2017-05-15T21:53:40.883Z,15.60
2017-05-15T21:56:08.596Z,15.60
2017-05-15T21:58:35.929Z,15.60
2017-05-15T22:01:02.942Z,15.60
2017-05-15T22:03:29.952Z,15.60
2017-05-15T22:05:57.340Z,15.70
2017-05-15T22:08:24.327Z,15.60
2017-05-15T22:10:51.332Z,15.50
2017-05-15T22:13:18.649Z,15.50
2017-05-15T22:15:45.663Z,15.50
2017-05-15T22:18:12.698Z,15.70
2017-05-15T22:20:40.837Z,15.70
2017-05-15T22:23:07.849Z,15.70
2017-05-15T22:25:34.884Z,15.70
2017-05-15T22:28:02.312Z,15.60
2017-05-15T22:30:30.159Z,15.70
2017-05-15T22:32:57.191Z,15.70
2017-05-15T22:35:24.555Z,15.80
2017-05-15T22:37:51.552Z,15.60
2017-05-15T22:40:19.296Z,15.30
2017-05-15T22:42:47.468Z,15.20
2017-05-15T22:45:14.468Z,15.10
2017-05-15T22:47:41.439Z,14.90
2017-05-15T22:50:08.889Z,14.90
2017-05-15T22:52:35.918Z,15.00
2017-05-15T22:55:03.012Z,15.10
2017-05-15T22:57:30.480Z,15.00
2017-05-15T22:59:58.231Z,15.00
2017-05-15T23:02:25.253Z,15.00
2017-05-15T23:04:52.605Z,15.00
2017-05-15T23:07:19.681Z,15.20
2017-05-15T23:09:46.708Z,15.20
2017-05-15T23:12:14.067Z,14.90
2017-05-15T23:14:41.079Z,15.10
2017-05-15T23:17:08.068Z,15.10
2017-05-15T23:19:35.406Z,15.00
2017-05-15T23:22:02.584Z,15.00
2017-05-15T23:24:29.599Z,14.90
2017-05-15T23:26:56.967Z,15.00
2017-05-15T23:29:23.962Z,14.90
2017-05-15T23:31:50.959Z,14.80
2017-05-15T23:34:18.333Z,14.90
2017-05-15T23:36:45.320Z,14.90
2017-05-15T23:39:12.329Z,14.90
2017-05-15T23:41:39.801Z,15.00
2017-05-15T23:44:07.540Z,14.70
2017-05-15T23:46:34.544Z,14.70
2017-05-15T23:49:01.956Z,14.70
2017-05-15T23:51:28.972Z,14.80
2017-05-15T23:53:55.977Z,14.70
2017-05-15T23:56:23.390Z,14.60
2017-05-15T23:58:50.415Z,14.50
